sensor_id;sensor_type;location;lat;lon;timestamp;temperature;humidity
14119;DHT22;7138;49.246;9.100;2022-08-30T00:00:20;19.00;99.90
14119;DHT22;7138;49.246;9.100;2022-08-30T00:03:06;19.00;99.90
14119;DHT22;7138;49.246;9.100;2022-08-30T00:05:38;18.90;99.90
14119;DHT22;7138;49.246;9.100;2022-08-30T00:08:05;19.00;99.90
14119;DHT22;7138;49.246;9.100;2022-08-30T00:10:31;18.90;99.90
14119;DHT22;7138;49.246;9.100;2022-08-30T00:12:57;19.00;99.90
14119;DHT22;7138;49.246;9.100;2022-08-30T00:15:25;18.90;99.90
14119;DHT22;7138;49.246;9.100;2022-08-30T00:17:52;18.90;99.90
14119;DHT22;7138;49.246;9.100;2022-08-30T00:20:22;18.80;99.90
14119;DHT22;7138;49.246;9.100;2022-08-30T00:22:50;18.60;99.90
14119;DHT22;7138;49.246;9.100;2022-08-30T00:25:17;18.50;99.90
14119;DHT22;7138;49.246;9.100;2022-08-30T00:27:43;18.40;99.90
14119;DHT22;7138;49.246;9.100;2022-08-30T00:30:10;18.40;99.90
14119;DHT22;7138;49.246;9.100;2022-08-30T00:32:38;18.40;99.90
14119;DHT22;7138;49.246;9.100;2022-08-30T00:35:05;18.50;99.90
14119;DHT22;7138;49.246;9.100;2022-08-30T00:37:35;18.40;99.90
14119;DHT22;7138;49.246;9.100;2022-08-30T00:40:02;18.50;99.90
14119;DHT22;7138;49.246;9.100;2022-08-30T00:42:30;18.50;99.90
14119;DHT22;7138;49.246;9.100;2022-08-30T00:44:58;18.50;99.90
14119;DHT22;7138;49.246;9.100;2022-08-30T00:47:24;18.50;99.90
14119;DHT22;7138;49.246;9.100;2022-08-30T00:49:53;18.50;99.90
14119;DHT22;7138;49.246;9.100;2022-08-30T00:52:22;18.40;99.90
14119;DHT22;7138;49.246;9.100;2022-08-30T00:54:51;18.30;99.90
14119;DHT22;7138;49.246;9.100;2022-08-30T00:57:17;18.30;99.90
14119;DHT22;7138;49.246;9.100;2022-08-30T00:59:46;18.20;99.90
14119;DHT22;7138;49.246;9.100;2022-08-30T01:02:14;18.10;99.90
14119;DHT22;7138;49.246;9.100;2022-08-30T01:04:43;18.00;99.90
14119;DHT22;7138;49.246;9.100;2022-08-30T01:07:10;17.90;99.90
14119;DHT22;7138;49.246;9.100;2022-08-30T01:09:36;17.90;99.90
14119;DHT22;7138;49.246;9.100;2022-08-30T01:12:05;17.90;99.90
14119;DHT22;7138;49.246;9.100;2022-08-30T01:14:31;17.90;99.90
14119;DHT22;7138;49.246;9.100;2022-08-30T01:16:59;17.80;99.90
14119;DHT22;7138;49.246;9.100;2022-08-30T01:19:30;17.80;99.90
14119;DHT22;7138;49.246;9.100;2022-08-30T01:22:05;17.70;99.90
14119;DHT22;7138;49.246;9.100;2022-08-30T01:24:43;17.70;99.90
14119;DHT22;7138;49.246;9.100;2022-08-30T01:27:12;17.60;99.90
14119;DHT22;7138;49.246;9.100;2022-08-30T01:29:38;17.60;99.90
14119;DHT22;7138;49.246;9.100;2022-08-30T01:32:05;17.50;99.90
14119;DHT22;7138;49.246;9.100;2022-08-30T01:34:31;17.50;99.90
14119;DHT22;7138;49.246;9.100;2022-08-30T01:36:57;17.50;99.90
14119;DHT22;7138;49.246;9.100;2022-08-30T01:39:22;17.50;99.90
14119;DHT22;7138;49.246;9.100;2022-08-30T01:41:50;17.50;99.90
14119;DHT22;7138;49.246;9.100;2022-08-30T01:44:17;17.50;99.90
14119;DHT22;7138;49.246;9.100;2022-08-30T01:46:45;17.60;99.90
14119;DHT22;7138;49.246;9.100;2022-08-30T01:49:16;17.60;99.90
14119;DHT22;7138;49.246;9.100;2022-08-30T01:51:43;17.60;99.90
14119;DHT22;7138;49.246;9.100;2022-08-30T01:54:09;17.50;99.90
14119;DHT22;7138;49.246;9.100;2022-08-30T01:56:36;17.40;99.90
14119;DHT22;7138;49.246;9.100;2022-08-30T01:59:03;17.30;99.90
14119;DHT22;7138;49.246;9.100;2022-08-30T02:01:32;17.20;99.90
14119;DHT22;7138;49.246;9.100;2022-08-30T02:04:01;17.10;99.90
14119;DHT22;7138;49.246;9.100;2022-08-30T02:06:28;17.00;99.90
14119;DHT22;7138;49.246;9.100;2022-08-30T02:08:54;17.10;99.90
14119;DHT22;7138;49.246;9.100;2022-08-30T02:11:20;17.10;99.90
14119;DHT22;7138;49.246;9.100;2022-08-30T02:13:46;17.10;99.90
14119;DHT22;7138;49.246;9.100;2022-08-30T02:16:16;17.00;99.90
14119;DHT22;7138;49.246;9.100;2022-08-30T02:18:45;17.00;99.90
14119;DHT22;7138;49.246;9.100;2022-08-30T02:21:12;17.00;99.90
14119;DHT22;7138;49.246;9.100;2022-08-30T02:23:38;17.00;99.90
14119;DHT22;7138;49.246;9.100;2022-08-30T02:26:06;16.90;99.90
14119;DHT22;7138;49.246;9.100;2022-08-30T02:28:32;16.90;99.90
14119;DHT22;7138;49.246;9.100;2022-08-30T02:30:59;16.90;99.90
14119;DHT22;7138;49.246;9.100;2022-08-30T02:33:26;16.80;99.90
14119;DHT22;7138;49.246;9.100;2022-08-30T02:35:52;16.70;99.90
14119;DHT22;7138;49.246;9.100;2022-08-30T02:38:18;16.60;99.90
14119;DHT22;7138;49.246;9.100;2022-08-30T02:40:44;16.60;99.90
14119;DHT22;7138;49.246;9.100;2022-08-30T02:43:10;16.70;99.90
14119;DHT22;7138;49.246;9.100;2022-08-30T02:45:36;16.70;99.90
14119;DHT22;7138;49.246;9.100;2022-08-30T02:48:03;16.70;99.90
14119;DHT22;7138;49.246;9.100;2022-08-30T02:50:30;16.70;99.90
14119;DHT22;7138;49.246;9.100;2022-08-30T02:52:56;16.60;99.90
14119;DHT22;7138;49.246;9.100;2022-08-30T02:55:22;16.60;99.90
14119;DHT22;7138;49.246;9.100;2022-08-30T02:57:48;16.50;99.90
14119;DHT22;7138;49.246;9.100;2022-08-30T03:00:17;16.40;99.90
14119;DHT22;7138;49.246;9.100;2022-08-30T03:02:45;16.40;99.90
14119;DHT22;7138;49.246;9.100;2022-08-30T03:05:13;16.30;99.90
14119;DHT22;7138;49.246;9.100;2022-08-30T03:07:42;16.30;99.90
14119;DHT22;7138;49.246;9.100;2022-08-30T03:10:10;16.30;99.90
14119;DHT22;7138;49.246;9.100;2022-08-30T03:12:36;16.20;99.90
14119;DHT22;7138;49.246;9.100;2022-08-30T03:15:03;16.20;99.90
14119;DHT22;7138;49.246;9.100;2022-08-30T03:17:30;16.20;99.90
14119;DHT22;7138;49.246;9.100;2022-08-30T03:19:56;16.20;99.90
14119;DHT22;7138;49.246;9.100;2022-08-30T03:22:26;16.20;99.90
14119;DHT22;7138;49.246;9.100;2022-08-30T03:24:54;16.20;99.90
14119;DHT22;7138;49.246;9.100;2022-08-30T03:27:24;16.10;99.90
14119;DHT22;7138;49.246;9.100;2022-08-30T03:29:50;16.10;99.90
14119;DHT22;7138;49.246;9.100;2022-08-30T03:32:16;16.00;99.90
14119;DHT22;7138;49.246;9.100;2022-08-30T03:34:42;16.00;99.90
14119;DHT22;7138;49.246;9.100;2022-08-30T03:37:07;16.10;99.90
14119;DHT22;7138;49.246;9.100;2022-08-30T03:39:33;16.00;99.90
14119;DHT22;7138;49.246;9.100;2022-08-30T03:42:01;16.00;99.90
14119;DHT22;7138;49.246;9.100;2022-08-30T03:44:27;16.00;99.90
14119;DHT22;7138;49.246;9.100;2022-08-30T03:46:53;15.90;99.90
14119;DHT22;7138;49.246;9.100;2022-08-30T03:49:19;15.90;99.90
14119;DHT22;7138;49.246;9.100;2022-08-30T03:51:46;15.90;99.90
14119;DHT22;7138;49.246;9.100;2022-08-30T03:54:13;16.00;99.90
14119;DHT22;7138;49.246;9.100;2022-08-30T03:56:40;16.10;99.90
14119;DHT22;7138;49.246;9.100;2022-08-30T03:59:07;16.10;99.90
14119;DHT22;7138;49.246;9.100;2022-08-30T04:01:33;16.10;99.90
14119;DHT22;7138;49.246;9.100;2022-08-30T04:03:59;16.00;99.90
14119;DHT22;7138;49.246;9.100;2022-08-30T04:06:25;16.00;99.90
14119;DHT22;7138;49.246;9.100;2022-08-30T04:08:51;16.20;99.90
14119;DHT22;7138;49.246;9.100;2022-08-30T04:11:17;16.20;99.90
14119;DHT22;7138;49.246;9.100;2022-08-30T04:13:45;16.10;99.90
14119;DHT22;7138;49.246;9.100;2022-08-30T04:16:15;16.00;99.90
14119;DHT22;7138;49.246;9.100;2022-08-30T04:18:41;16.00;99.90
14119;DHT22;7138;49.246;9.100;2022-08-30T04:21:07;15.90;99.90
14119;DHT22;7138;49.246;9.100;2022-08-30T04:23:33;15.90;99.90
14119;DHT22;7138;49.246;9.100;2022-08-30T04:25:59;15.90;99.90
14119;DHT22;7138;49.246;9.100;2022-08-30T04:28:24;15.80;99.90
14119;DHT22;7138;49.246;9.100;2022-08-30T04:30:50;15.90;99.90
14119;DHT22;7138;49.246;9.100;2022-08-30T04:33:18;15.90;99.90
14119;DHT22;7138;49.246;9.100;2022-08-30T04:35:46;15.90;99.90
14119;DHT22;7138;49.246;9.100;2022-08-30T04:38:14;15.90;99.90
14119;DHT22;7138;49.246;9.100;2022-08-30T04:40:42;15.90;99.90
14119;DHT22;7138;49.246;9.100;2022-08-30T04:43:09;15.90;99.90
14119;DHT22;7138;49.246;9.100;2022-08-30T04:45:37;15.80;99.90
14119;DHT22;7138;49.246;9.100;2022-08-30T04:48:04;15.80;99.90
14119;DHT22;7138;49.246;9.100;2022-08-30T04:50:32;15.90;99.90
14119;DHT22;7138;49.246;9.100;2022-08-30T04:52:58;15.90;99.90
14119;DHT22;7138;49.246;9.100;2022-08-30T04:55:24;15.90;99.90
14119;DHT22;7138;49.246;9.100;2022-08-30T04:57:50;15.80;99.90
14119;DHT22;7138;49.246;9.100;2022-08-30T05:00:18;15.80;99.90
14119;DHT22;7138;49.246;9.100;2022-08-30T05:02:48;15.80;99.90
14119;DHT22;7138;49.246;9.100;2022-08-30T05:05:14;15.80;99.90
14119;DHT22;7138;49.246;9.100;2022-08-30T05:08:00;15.70;99.90
14119;DHT22;7138;49.246;9.100;2022-08-30T05:10:26;15.80;99.90
14119;DHT22;7138;49.246;9.100;2022-08-30T05:12:53;15.80;99.90
14119;DHT22;7138;49.246;9.100;2022-08-30T05:15:19;15.80;99.90
14119;DHT22;7138;49.246;9.100;2022-08-30T05:17:47;15.90;99.90
14119;DHT22;7138;49.246;9.100;2022-08-30T05:20:13;16.00;99.90
14119;DHT22;7138;49.246;9.100;2022-08-30T05:22:42;16.30;99.90
14119;DHT22;7138;49.246;9.100;2022-08-30T05:25:17;16.80;99.90
14119;DHT22;7138;49.246;9.100;2022-08-30T05:27:44;17.30;99.90
14119;DHT22;7138;49.246;9.100;2022-08-30T05:30:11;17.70;99.90
14119;DHT22;7138;49.246;9.100;2022-08-30T05:32:38;18.10;99.90
14119;DHT22;7138;49.246;9.100;2022-08-30T05:35:05;18.40;99.90
14119;DHT22;7138;49.246;9.100;2022-08-30T05:37:32;18.70;99.90
14119;DHT22;7138;49.246;9.100;2022-08-30T05:39:58;19.00;99.90
14119;DHT22;7138;49.246;9.100;2022-08-30T05:42:26;19.20;99.90
14119;DHT22;7138;49.246;9.100;2022-08-30T05:44:52;19.50;99.90
14119;DHT22;7138;49.246;9.100;2022-08-30T05:47:19;19.90;99.90
14119;DHT22;7138;49.246;9.100;2022-08-30T05:49:46;20.20;99.90
14119;DHT22;7138;49.246;9.100;2022-08-30T05:52:13;20.40;99.90
14119;DHT22;7138;49.246;9.100;2022-08-30T05:54:42;20.50;99.90
14119;DHT22;7138;49.246;9.100;2022-08-30T05:57:08;20.70;99.90
14119;DHT22;7138;49.246;9.100;2022-08-30T05:59:35;21.00;99.90
14119;DHT22;7138;49.246;9.100;2022-08-30T06:02:01;21.00;99.90
14119;DHT22;7138;49.246;9.100;2022-08-30T06:04:27;21.10;99.90
14119;DHT22;7138;49.246;9.100;2022-08-30T06:06:53;21.30;99.90
14119;DHT22;7138;49.246;9.100;2022-08-30T06:09:19;21.30;99.90
14119;DHT22;7138;49.246;9.100;2022-08-30T06:11:46;21.20;99.90
14119;DHT22;7138;49.246;9.100;2022-08-30T06:14:12;21.60;99.90
14119;DHT22;7138;49.246;9.100;2022-08-30T06:16:40;21.60;99.90
14119;DHT22;7138;49.246;9.100;2022-08-30T06:19:10;21.90;99.90
14119;DHT22;7138;49.246;9.100;2022-08-30T06:21:37;22.10;99.90
14119;DHT22;7138;49.246;9.100;2022-08-30T06:24:07;22.10;99.90
14119;DHT22;7138;49.246;9.100;2022-08-30T06:26:36;22.20;99.90
14119;DHT22;7138;49.246;9.100;2022-08-30T06:29:06;22.00;99.90
14119;DHT22;7138;49.246;9.100;2022-08-30T06:31:33;21.90;99.90
14119;DHT22;7138;49.246;9.100;2022-08-30T06:34:00;22.00;99.90
14119;DHT22;7138;49.246;9.100;2022-08-30T06:36:26;22.10;99.90
14119;DHT22;7138;49.246;9.100;2022-08-30T06:38:54;21.90;99.90
14119;DHT22;7138;49.246;9.100;2022-08-30T06:41:24;22.10;99.90
14119;DHT22;7138;49.246;9.100;2022-08-30T06:43:52;22.00;99.90
14119;DHT22;7138;49.246;9.100;2022-08-30T06:46:21;22.10;99.90
14119;DHT22;7138;49.246;9.100;2022-08-30T06:48:48;22.10;99.90
14119;DHT22;7138;49.246;9.100;2022-08-30T06:51:18;21.80;99.90
14119;DHT22;7138;49.246;9.100;2022-08-30T06:53:45;21.70;99.90
14119;DHT22;7138;49.246;9.100;2022-08-30T06:56:11;22.00;99.90
14119;DHT22;7138;49.246;9.100;2022-08-30T06:58:38;22.20;99.90
14119;DHT22;7138;49.246;9.100;2022-08-30T07:01:06;22.10;99.90
14119;DHT22;7138;49.246;9.100;2022-08-30T07:03:36;22.00;99.90
14119;DHT22;7138;49.246;9.100;2022-08-30T07:06:02;22.10;99.90
14119;DHT22;7138;49.246;9.100;2022-08-30T07:08:29;22.00;99.90
14119;DHT22;7138;49.246;9.100;2022-08-30T07:10:56;21.90;99.90
14119;DHT22;7138;49.246;9.100;2022-08-30T07:13:22;21.80;99.90
14119;DHT22;7138;49.246;9.100;2022-08-30T07:15:49;22.10;99.90
14119;DHT22;7138;49.246;9.100;2022-08-30T07:18:16;22.10;99.90
14119;DHT22;7138;49.246;9.100;2022-08-30T07:21:06;21.90;99.90
14119;DHT22;7138;49.246;9.100;2022-08-30T07:23:34;22.30;99.90
14119;DHT22;7138;49.246;9.100;2022-08-30T07:26:03;22.20;99.90
14119;DHT22;7138;49.246;9.100;2022-08-30T07:28:30;22.40;99.90
14119;DHT22;7138;49.246;9.100;2022-08-30T07:30:57;22.50;99.90
14119;DHT22;7138;49.246;9.100;2022-08-30T07:33:23;22.90;99.90
14119;DHT22;7138;49.246;9.100;2022-08-30T07:35:49;23.20;99.90
14119;DHT22;7138;49.246;9.100;2022-08-30T07:38:15;23.10;99.90
14119;DHT22;7138;49.246;9.100;2022-08-30T07:40:42;23.30;99.90
14119;DHT22;7138;49.246;9.100;2022-08-30T07:43:09;23.40;99.90
14119;DHT22;7138;49.246;9.100;2022-08-30T07:45:35;23.50;99.90
14119;DHT22;7138;49.246;9.100;2022-08-30T07:48:02;23.40;99.90
14119;DHT22;7138;49.246;9.100;2022-08-30T07:50:28;23.60;99.90
14119;DHT22;7138;49.246;9.100;2022-08-30T07:52:54;23.80;99.90
14119;DHT22;7138;49.246;9.100;2022-08-30T07:55:20;23.80;99.90
14119;DHT22;7138;49.246;9.100;2022-08-30T07:57:48;23.80;99.90
14119;DHT22;7138;49.246;9.100;2022-08-30T08:00:14;24.00;99.90
14119;DHT22;7138;49.246;9.100;2022-08-30T08:02:40;24.20;99.90
14119;DHT22;7138;49.246;9.100;2022-08-30T08:05:08;24.40;99.90
14119;DHT22;7138;49.246;9.100;2022-08-30T08:07:35;24.50;99.90
14119;DHT22;7138;49.246;9.100;2022-08-30T08:10:02;24.30;99.90
14119;DHT22;7138;49.246;9.100;2022-08-30T08:12:28;24.00;99.90
14119;DHT22;7138;49.246;9.100;2022-08-30T08:14:56;24.00;99.90
14119;DHT22;7138;49.246;9.100;2022-08-30T08:17:21;24.50;99.90
14119;DHT22;7138;49.246;9.100;2022-08-30T08:19:48;24.60;99.90
14119;DHT22;7138;49.246;9.100;2022-08-30T08:22:13;24.80;99.90
14119;DHT22;7138;49.246;9.100;2022-08-30T08:24:39;25.00;99.90
14119;DHT22;7138;49.246;9.100;2022-08-30T08:27:05;24.60;99.90
14119;DHT22;7138;49.246;9.100;2022-08-30T08:29:31;24.20;99.90
14119;DHT22;7138;49.246;9.100;2022-08-30T08:31:58;24.60;99.90
14119;DHT22;7138;49.246;9.100;2022-08-30T08:34:24;24.70;99.90
14119;DHT22;7138;49.246;9.100;2022-08-30T08:36:50;24.80;99.90
14119;DHT22;7138;49.246;9.100;2022-08-30T08:39:17;25.00;99.90
14119;DHT22;7138;49.246;9.100;2022-08-30T08:41:52;25.40;99.90
14119;DHT22;7138;49.246;9.100;2022-08-30T08:44:36;25.50;99.90
14119;DHT22;7138;49.246;9.100;2022-08-30T08:47:16;25.40;99.90
14119;DHT22;7138;49.246;9.100;2022-08-30T08:49:49;25.10;99.90
14119;DHT22;7138;49.246;9.100;2022-08-30T08:52:23;25.30;99.90
14119;DHT22;7138;49.246;9.100;2022-08-30T08:55:15;25.60;99.90
14119;DHT22;7138;49.246;9.100;2022-08-30T08:57:45;25.60;99.90
14119;DHT22;7138;49.246;9.100;2022-08-30T09:00:13;26.10;99.90
14119;DHT22;7138;49.246;9.100;2022-08-30T09:02:43;26.30;99.90
14119;DHT22;7138;49.246;9.100;2022-08-30T09:05:13;26.50;99.90
14119;DHT22;7138;49.246;9.100;2022-08-30T09:07:46;26.70;99.90
14119;DHT22;7138;49.246;9.100;2022-08-30T09:10:15;26.50;99.90
14119;DHT22;7138;49.246;9.100;2022-08-30T09:12:41;26.50;99.90
14119;DHT22;7138;49.246;9.100;2022-08-30T09:15:16;26.60;99.90
14119;DHT22;7138;49.246;9.100;2022-08-30T09:17:51;26.80;99.90
14119;DHT22;7138;49.246;9.100;2022-08-30T09:20:29;26.80;99.90
14119;DHT22;7138;49.246;9.100;2022-08-30T09:22:57;27.20;99.90
14119;DHT22;7138;49.246;9.100;2022-08-30T09:25:25;27.00;99.90
14119;DHT22;7138;49.246;9.100;2022-08-30T09:27:54;27.30;99.90
14119;DHT22;7138;49.246;9.100;2022-08-30T09:30:33;27.50;99.90
14119;DHT22;7138;49.246;9.100;2022-08-30T09:33:03;27.10;99.90
14119;DHT22;7138;49.246;9.100;2022-08-30T09:35:34;27.30;99.90
14119;DHT22;7138;49.246;9.100;2022-08-30T09:38:05;26.80;99.90
14119;DHT22;7138;49.246;9.100;2022-08-30T09:40:36;26.90;99.90
14119;DHT22;7138;49.246;9.100;2022-08-30T09:43:07;27.10;99.90
14119;DHT22;7138;49.246;9.100;2022-08-30T09:45:36;27.50;99.90
14119;DHT22;7138;49.246;9.100;2022-08-30T09:48:29;27.40;99.90
14119;DHT22;7138;49.246;9.100;2022-08-30T09:51:13;27.40;99.90
14119;DHT22;7138;49.246;9.100;2022-08-30T09:54:00;27.50;99.90
14119;DHT22;7138;49.246;9.100;2022-08-30T09:56:38;27.70;99.90
14119;DHT22;7138;49.246;9.100;2022-08-30T09:59:28;27.80;99.90
14119;DHT22;7138;49.246;9.100;2022-08-30T10:02:14;27.60;99.90
14119;DHT22;7138;49.246;9.100;2022-08-30T10:05:00;27.70;99.90
14119;DHT22;7138;49.246;9.100;2022-08-30T10:07:33;27.70;99.90
14119;DHT22;7138;49.246;9.100;2022-08-30T10:10:15;27.80;99.90
14119;DHT22;7138;49.246;9.100;2022-08-30T10:12:55;27.90;99.90
14119;DHT22;7138;49.246;9.100;2022-08-30T10:15:32;27.90;99.60
14119;DHT22;7138;49.246;9.100;2022-08-30T10:18:07;27.70;99.90
14119;DHT22;7138;49.246;9.100;2022-08-30T10:20:52;27.60;99.20
14119;DHT22;7138;49.246;9.100;2022-08-30T10:23:27;27.60;99.90
14119;DHT22;7138;49.246;9.100;2022-08-30T10:26:12;27.60;99.20
14119;DHT22;7138;49.246;9.100;2022-08-30T10:28:50;27.30;99.70
14119;DHT22;7138;49.246;9.100;2022-08-30T10:31:25;27.30;99.90
14119;DHT22;7138;49.246;9.100;2022-08-30T10:33:56;27.30;99.80
14119;DHT22;7138;49.246;9.100;2022-08-30T10:36:31;27.40;99.90
14119;DHT22;7138;49.246;9.100;2022-08-30T10:39:09;27.50;99.60
14119;DHT22;7138;49.246;9.100;2022-08-30T10:41:45;27.70;99.90
14119;DHT22;7138;49.246;9.100;2022-08-30T10:44:19;27.90;99.90
14119;DHT22;7138;49.246;9.100;2022-08-30T10:46:59;28.00;99.60
14119;DHT22;7138;49.246;9.100;2022-08-30T10:49:34;27.80;99.60
14119;DHT22;7138;49.246;9.100;2022-08-30T10:52:15;27.70;99.30
14119;DHT22;7138;49.246;9.100;2022-08-30T10:54:50;27.60;99.90
14119;DHT22;7138;49.246;9.100;2022-08-30T10:57:19;27.50;99.90
14119;DHT22;7138;49.246;9.100;2022-08-30T10:59:53;27.90;99.90
14119;DHT22;7138;49.246;9.100;2022-08-30T11:05:59;28.30;99.90
14119;DHT22;7138;49.246;9.100;2022-08-30T11:08:47;28.80;99.90
14119;DHT22;7138;49.246;9.100;2022-08-30T11:11:35;29.10;98.70
14119;DHT22;7138;49.246;9.100;2022-08-30T11:14:16;29.30;98.00
14119;DHT22;7138;49.246;9.100;2022-08-30T11:16:45;29.30;97.80
14119;DHT22;7138;49.246;9.100;2022-08-30T11:19:18;29.20;98.80
14119;DHT22;7138;49.246;9.100;2022-08-30T11:21:48;29.10;97.80
14119;DHT22;7138;49.246;9.100;2022-08-30T11:24:18;28.90;98.90
14119;DHT22;7138;49.246;9.100;2022-08-30T11:26:52;28.90;98.00
14119;DHT22;7138;49.246;9.100;2022-08-30T11:29:33;29.00;97.20
14119;DHT22;7138;49.246;9.100;2022-08-30T11:35:35;29.10;98.20
14119;DHT22;7138;49.246;9.100;2022-08-30T11:38:19;29.50;97.70
14119;DHT22;7138;49.246;9.100;2022-08-30T11:41:08;29.30;97.10
14119;DHT22;7138;49.246;9.100;2022-08-30T11:43:48;29.40;97.00
14119;DHT22;7138;49.246;9.100;2022-08-30T11:46:18;29.30;96.20
14119;DHT22;7138;49.246;9.100;2022-08-30T11:48:51;29.50;97.50
14119;DHT22;7138;49.246;9.100;2022-08-30T11:51:39;29.40;95.80
14119;DHT22;7138;49.246;9.100;2022-08-30T11:54:29;29.70;96.00
14119;DHT22;7138;49.246;9.100;2022-08-30T11:57:09;29.50;95.30
14119;DHT22;7138;49.246;9.100;2022-08-30T11:59:51;29.50;97.60
14119;DHT22;7138;49.246;9.100;2022-08-30T12:02:50;29.70;96.80
14119;DHT22;7138;49.246;9.100;2022-08-30T12:05:50;29.80;96.50
14119;DHT22;7138;49.246;9.100;2022-08-30T12:08:45;29.80;95.20
14119;DHT22;7138;49.246;9.100;2022-08-30T12:11:53;29.90;95.00
14119;DHT22;7138;49.246;9.100;2022-08-30T12:14:44;30.00;94.50
14119;DHT22;7138;49.246;9.100;2022-08-30T12:17:24;30.20;95.60
14119;DHT22;7138;49.246;9.100;2022-08-30T12:20:21;29.80;94.90
14119;DHT22;7138;49.246;9.100;2022-08-30T12:22:51;29.80;95.10
14119;DHT22;7138;49.246;9.100;2022-08-30T12:25:26;29.60;94.90
14119;DHT22;7138;49.246;9.100;2022-08-30T12:28:11;29.80;97.50
14119;DHT22;7138;49.246;9.100;2022-08-30T12:30:41;29.70;95.20
14119;DHT22;7138;49.246;9.100;2022-08-30T12:33:10;29.30;94.80
14119;DHT22;7138;49.246;9.100;2022-08-30T12:35:40;28.90;94.90
14119;DHT22;7138;49.246;9.100;2022-08-30T12:38:14;28.60;95.70
14119;DHT22;7138;49.246;9.100;2022-08-30T12:40:52;28.50;97.10
14119;DHT22;7138;49.246;9.100;2022-08-30T12:43:29;28.40;95.60
14119;DHT22;7138;49.246;9.100;2022-08-30T12:46:02;28.40;95.80
14119;DHT22;7138;49.246;9.100;2022-08-30T12:48:35;28.40;96.00
14119;DHT22;7138;49.246;9.100;2022-08-30T12:51:04;28.80;96.20
14119;DHT22;7138;49.246;9.100;2022-08-30T12:53:33;28.80;95.50
14119;DHT22;7138;49.246;9.100;2022-08-30T12:56:08;29.10;96.50
14119;DHT22;7138;49.246;9.100;2022-08-30T12:58:42;29.00;95.70
14119;DHT22;7138;49.246;9.100;2022-08-30T13:01:25;28.90;95.80
14119;DHT22;7138;49.246;9.100;2022-08-30T13:04:00;29.20;95.50
14119;DHT22;7138;49.246;9.100;2022-08-30T13:06:47;29.30;95.50
14119;DHT22;7138;49.246;9.100;2022-08-30T13:09:23;29.40;93.60
14119;DHT22;7138;49.246;9.100;2022-08-30T13:11:54;29.30;95.20
14119;DHT22;7138;49.246;9.100;2022-08-30T13:14:30;29.40;96.20
14119;DHT22;7138;49.246;9.100;2022-08-30T13:17:21;29.50;94.50
14119;DHT22;7138;49.246;9.100;2022-08-30T13:19:58;29.40;93.70
14119;DHT22;7138;49.246;9.100;2022-08-30T13:22:27;29.40;94.20
14119;DHT22;7138;49.246;9.100;2022-08-30T13:24:55;29.20;94.50
14119;DHT22;7138;49.246;9.100;2022-08-30T13:27:22;29.00;94.80
14119;DHT22;7138;49.246;9.100;2022-08-30T13:29:48;29.20;94.00
14119;DHT22;7138;49.246;9.100;2022-08-30T13:32:14;29.30;93.50
14119;DHT22;7138;49.246;9.100;2022-08-30T13:34:42;29.40;94.90
14119;DHT22;7138;49.246;9.100;2022-08-30T13:37:12;29.40;94.30
14119;DHT22;7138;49.246;9.100;2022-08-30T13:39:40;29.50;94.00
14119;DHT22;7138;49.246;9.100;2022-08-30T13:42:06;29.50;95.10
14119;DHT22;7138;49.246;9.100;2022-08-30T13:44:32;29.40;93.30
14119;DHT22;7138;49.246;9.100;2022-08-30T13:46:59;29.60;93.20
14119;DHT22;7138;49.246;9.100;2022-08-30T13:49:26;29.60;93.60
14119;DHT22;7138;49.246;9.100;2022-08-30T13:51:55;29.70;93.40
14119;DHT22;7138;49.246;9.100;2022-08-30T13:54:22;29.10;93.60
14119;DHT22;7138;49.246;9.100;2022-08-30T13:56:49;29.10;93.00
14119;DHT22;7138;49.246;9.100;2022-08-30T13:59:17;29.40;94.00
14119;DHT22;7138;49.246;9.100;2022-08-30T14:01:44;29.20;92.80
14119;DHT22;7138;49.246;9.100;2022-08-30T14:04:10;29.10;93.40
14119;DHT22;7138;49.246;9.100;2022-08-30T14:06:36;29.10;92.50
14119;DHT22;7138;49.246;9.100;2022-08-30T14:09:04;29.20;93.90
14119;DHT22;7138;49.246;9.100;2022-08-30T14:11:32;29.30;92.80
14119;DHT22;7138;49.246;9.100;2022-08-30T14:13:59;29.10;93.30
14119;DHT22;7138;49.246;9.100;2022-08-30T14:16:25;29.40;93.50
14119;DHT22;7138;49.246;9.100;2022-08-30T14:18:52;29.50;92.50
14119;DHT22;7138;49.246;9.100;2022-08-30T14:21:18;29.50;93.30
14119;DHT22;7138;49.246;9.100;2022-08-30T14:23:44;29.60;92.40
14119;DHT22;7138;49.246;9.100;2022-08-30T14:26:16;29.90;93.20
14119;DHT22;7138;49.246;9.100;2022-08-30T14:28:44;29.80;93.60
14119;DHT22;7138;49.246;9.100;2022-08-30T14:31:10;29.80;91.40
14119;DHT22;7138;49.246;9.100;2022-08-30T14:33:37;29.60;91.40
14119;DHT22;7138;49.246;9.100;2022-08-30T14:36:04;29.50;91.30
14119;DHT22;7138;49.246;9.100;2022-08-30T14:38:30;29.30;90.90
14119;DHT22;7138;49.246;9.100;2022-08-30T14:40:56;29.40;91.70
14119;DHT22;7138;49.246;9.100;2022-08-30T14:43:23;29.30;91.10
14119;DHT22;7138;49.246;9.100;2022-08-30T14:45:49;29.10;92.00
14119;DHT22;7138;49.246;9.100;2022-08-30T14:48:14;29.00;92.30
14119;DHT22;7138;49.246;9.100;2022-08-30T14:50:40;28.80;93.50
14119;DHT22;7138;49.246;9.100;2022-08-30T14:53:06;28.50;91.30
14119;DHT22;7138;49.246;9.100;2022-08-30T14:55:33;28.60;91.60
14119;DHT22;7138;49.246;9.100;2022-08-30T14:58:00;28.80;92.70
14119;DHT22;7138;49.246;9.100;2022-08-30T15:00:27;29.00;91.30
14119;DHT22;7138;49.246;9.100;2022-08-30T15:02:53;29.10;91.30
14119;DHT22;7138;49.246;9.100;2022-08-30T15:05:19;29.00;91.20
14119;DHT22;7138;49.246;9.100;2022-08-30T15:07:49;28.90;90.80
14119;DHT22;7138;49.246;9.100;2022-08-30T15:10:16;29.00;91.60
14119;DHT22;7138;49.246;9.100;2022-08-30T15:12:45;29.10;91.50
14119;DHT22;7138;49.246;9.100;2022-08-30T15:15:14;29.10;91.10
14119;DHT22;7138;49.246;9.100;2022-08-30T15:17:42;29.10;91.30
14119;DHT22;7138;49.246;9.100;2022-08-30T15:20:09;29.00;90.80
14119;DHT22;7138;49.246;9.100;2022-08-30T15:22:35;28.80;91.10
14119;DHT22;7138;49.246;9.100;2022-08-30T15:25:02;28.80;90.70
14119;DHT22;7138;49.246;9.100;2022-08-30T15:27:29;28.90;91.40
14119;DHT22;7138;49.246;9.100;2022-08-30T15:29:54;29.10;90.30
14119;DHT22;7138;49.246;9.100;2022-08-30T15:32:20;29.00;90.80
14119;DHT22;7138;49.246;9.100;2022-08-30T15:34:48;28.80;90.50
14119;DHT22;7138;49.246;9.100;2022-08-30T15:37:13;28.70;90.60
14119;DHT22;7138;49.246;9.100;2022-08-30T15:39:46;28.70;91.20
14119;DHT22;7138;49.246;9.100;2022-08-30T15:42:12;28.60;90.70
14119;DHT22;7138;49.246;9.100;2022-08-30T15:44:38;28.60;90.80
14119;DHT22;7138;49.246;9.100;2022-08-30T15:47:04;28.60;90.80
14119;DHT22;7138;49.246;9.100;2022-08-30T15:49:30;28.40;90.80
14119;DHT22;7138;49.246;9.100;2022-08-30T15:52:00;28.40;91.50
14119;DHT22;7138;49.246;9.100;2022-08-30T15:54:27;28.40;89.60
14119;DHT22;7138;49.246;9.100;2022-08-30T15:56:53;28.40;90.50
14119;DHT22;7138;49.246;9.100;2022-08-30T15:59:24;28.40;90.10
14119;DHT22;7138;49.246;9.100;2022-08-30T16:01:49;28.40;91.50
14119;DHT22;7138;49.246;9.100;2022-08-30T16:04:15;28.30;89.70
14119;DHT22;7138;49.246;9.100;2022-08-30T16:06:41;28.30;90.10
14119;DHT22;7138;49.246;9.100;2022-08-30T16:09:09;28.30;90.00